Impacts TAF Board
For situational awareness. Not to be used for flight planning purposes.
IDs:

KIAH - Houston/Bush Intl, TX, US

Issued at 0900 UTC 17 Feb 2019
Updated at 0951 UTC 17 Feb 2019
Potential Impact None Slight Moderate High
Time0853Z 17/10Z 17/11Z 17/12Z 17/13Z 17/14Z 17/15Z 17/16Z 17/17Z 17/18Z 17/19Z 17/20Z 17/21Z 17/22Z>>
Type OBS PRVL PRVL PRVL PRVL PRVL PRVL PRVL PRVL PRVL PRVL PRVL PRVL PRVL
VIS 6 4 4 4 4 4 6 6 6 >6 >6 >6 >6 >6
CIG 7 5 5 5 5 5 7 7 7 -- -- -- -- --
Cover OVC OVC OVC OVC OVC OVC OVC OVC OVC SCT SCT SCT SCT SCT
FltCat IFR IFR IFR IFR IFR IFR IFR IFR IFR VFR VFR VFR VFR VFR
WX BR BR BR BR BR BR BR BR BR -- -- -- -- --
WDir 180 350 350 350 350 350 340 340 340 340 340 340 350 350
WSpd 4 5 5 5 5 5 8 8 8 10 10 10 11 11
WGst -- -- -- -- -- -- -- -- -- -- -- -- -- --
Raw TAF
KIAH 170900Z 1709/1812 VRB03KT 6SM BR BKN007 OVC012
  FM171000 35005KT 4SM BR OVC005
  FM171500 34008KT 6SM BR OVC007
  FM171800 34010KT P6SM SCT050 SCT100
  FM172100 35011KT P6SM SCT250
  FM180200 35006KT P6SM SCT250


Raw METAR
KIAH 170853Z 18004KT 6SM BR BKN007 OVC012 21/19 A2963 RMK AO2 SLP032 T02060194 56015
KIAH 170753Z 20003KT 6SM BR BKN007 OVC011 19/18 A2964 RMK AO2 SLP038 T01940183
KIAH 170653Z 12004KT 7SM BKN006 OVC010 18/17 A2964 RMK AO2 SLP037 T01780167

METAR Board
Radar Display
Forecast Discussion
For situational awareness. Not to be used for flight planning purposes.